createdAt,value
2023-04-07T00:02:00.539Z,100357.16
2023-04-07T00:05:03.485Z,100348.34
2023-04-07T00:08:06.290Z,100346.22
2023-04-07T00:11:09.949Z,100345.63
2023-04-07T00:14:12.671Z,100342.91
2023-04-07T00:17:15.750Z,100347.13
2023-04-07T00:20:19.576Z,100342.56
2023-04-07T00:23:22.803Z,100342.06
2023-04-07T00:26:31.426Z,100337.72
2023-04-07T00:29:34.305Z,100337.59
2023-04-07T00:32:37.847Z,100326.81
2023-04-07T00:35:40.944Z,100332.75
2023-04-07T00:38:43.602Z,100324.81
2023-04-07T00:41:46.933Z,100336.69
2023-04-07T00:44:49.664Z,100325.84
2023-04-07T00:47:52.358Z,100334.25
2023-04-07T00:50:55.092Z,100325.66
2023-04-07T00:53:57.616Z,100317.25
2023-04-07T00:57:01.790Z,100324.31
2023-04-07T01:00:06.812Z,100324.31
2023-04-07T01:03:18.419Z,100312.97
2023-04-07T01:06:26.892Z,100326.03
2023-04-07T01:09:41.752Z,100311.69
2023-04-07T01:13:23.037Z,100309.84
2023-04-07T01:16:32.689Z,100301.19
2023-04-07T01:20:08.426Z,100297.47
2023-04-07T01:23:25.481Z,100297.47
2023-04-07T01:26:33.690Z,100308.69
2023-04-07T01:29:47.491Z,100299.50
2023-04-07T01:32:53.192Z,100297.81
2023-04-07T01:35:59.809Z,100300.63
2023-04-07T01:39:03.047Z,100302.63
2023-04-07T01:42:08.371Z,100300.13
2023-04-07T01:45:12.372Z,100291.94
2023-04-07T01:48:16.402Z,100292.03
2023-04-07T01:51:21.811Z,100297.22
2023-04-07T01:54:25.845Z,100292.09
2023-04-07T01:57:29.242Z,100292.84
2023-04-07T02:00:38.334Z,100290.72
2023-04-07T02:04:02.545Z,100296.41
2023-04-07T02:07:21.277Z,100292.09
2023-04-07T02:10:29.653Z,100295.56
2023-04-07T02:13:37.908Z,100289.00
2023-04-07T02:16:42.256Z,100293.50
2023-04-07T02:19:46.769Z,100290.44
2023-04-07T02:22:49.750Z,100288.03
2023-04-07T02:25:56.730Z,100283.97
2023-04-07T02:29:01.518Z,100286.16
2023-04-07T02:32:04.525Z,100289.44
2023-04-07T02:35:10.184Z,100285.09
2023-04-07T02:38:13.037Z,100282.41
2023-04-07T02:41:16.058Z,100287.41
2023-04-07T02:44:19.605Z,100289.28
2023-04-07T02:47:23.074Z,100290.78
2023-04-07T02:50:27.097Z,100295.84
2023-04-07T02:53:32.660Z,100286.81
2023-04-07T02:56:38.070Z,100293.34
2023-04-07T02:59:41.720Z,100293.53
2023-04-07T03:02:47.183Z,100287.09
2023-04-07T03:05:51.499Z,100276.34
2023-04-07T03:08:54.228Z,100279.75
2023-04-07T03:11:57.090Z,100286.69
2023-04-07T03:15:00.133Z,100285.56
2023-04-07T03:18:02.964Z,100281.38
2023-04-07T03:21:06.768Z,100283.50
2023-04-07T03:24:09.773Z,100276.25
2023-04-07T03:27:12.453Z,100280.63
2023-04-07T03:30:20.903Z,100284.69
2023-04-07T03:33:24.467Z,100291.78
2023-04-07T03:36:31.858Z,100284.88
2023-04-07T03:39:41.169Z,100284.41
2023-04-07T03:42:57.700Z,100289.41
2023-04-07T03:46:00.754Z,100287.09
2023-04-07T03:49:03.543Z,100289.06
2023-04-07T03:52:08.320Z,100284.66
2023-04-07T03:55:11.237Z,100282.38
2023-04-07T03:58:14.204Z,100285.13
2023-04-07T04:01:18.572Z,100290.69
2023-04-07T04:04:24.782Z,100292.47
2023-04-07T04:07:28.182Z,100299.13
2023-04-07T04:10:37.161Z,100308.03
2023-04-07T04:13:39.892Z,100306.41
2023-04-07T04:16:43.218Z,100309.69
2023-04-07T04:20:00.106Z,100312.84
2023-04-07T04:23:18.459Z,100316.56
2023-04-07T04:26:26.017Z,100322.28
2023-04-07T04:29:33.048Z,100316.22
2023-04-07T04:32:38.360Z,100313.31
2023-04-07T04:35:42.635Z,100317.03
2023-04-07T04:38:48.755Z,100314.25
2023-04-07T04:41:56.724Z,100311.97
2023-04-07T04:45:07.294Z,100309.91
2023-04-07T04:48:11.567Z,100325.50
2023-04-07T04:51:14.339Z,100338.25
2023-04-07T04:54:19.690Z,100325.25
2023-04-07T04:57:23.032Z,100316.50
2023-04-07T05:00:26.713Z,100332.88
2023-04-07T05:03:35.522Z,100344.34
2023-04-07T05:06:46.304Z,100342.53
2023-04-07T05:09:52.016Z,100337.78
2023-04-07T05:12:57.749Z,100340.38
2023-04-07T05:16:01.276Z,100345.97
2023-04-07T05:19:04.378Z,100348.66
2023-04-07T05:22:07.804Z,100345.00
2023-04-07T05:25:18.818Z,100343.25
2023-04-07T05:28:24.663Z,100350.84
2023-04-07T05:31:29.594Z,100350.88
2023-04-07T05:34:35.195Z,100352.28
2023-04-07T05:37:39.277Z,100354.34
2023-04-07T05:40:43.104Z,100361.63
2023-04-07T05:43:51.367Z,100352.44
2023-04-07T05:46:55.530Z,100365.72
2023-04-07T05:50:01.247Z,100360.75
2023-04-07T05:53:04.817Z,100365.63
2023-04-07T05:56:08.335Z,100367.53
2023-04-07T05:59:23.282Z,100354.47
2023-04-07T06:02:28.419Z,100352.75
2023-04-07T06:05:32.040Z,100363.06
2023-04-07T06:08:34.972Z,100359.56
2023-04-07T06:11:37.731Z,100363.16
2023-04-07T06:14:40.650Z,100355.41
2023-04-07T06:17:48.806Z,100363.44
2023-04-07T06:20:53.880Z,100353.91
2023-04-07T06:23:56.677Z,100360.09
2023-04-07T06:27:03.778Z,100373.66
2023-04-07T06:30:07.266Z,100377.53
2023-04-07T06:33:12.252Z,100372.16
2023-04-07T06:36:16.619Z,100378.47
2023-04-07T06:39:20.431Z,100383.94
2023-04-07T06:42:23.279Z,100385.56
2023-04-07T06:45:36.436Z,100389.78
2023-04-07T06:48:39.013Z,100390.09
2023-04-07T06:51:41.626Z,100394.53
2023-04-07T06:54:44.861Z,100393.03
2023-04-07T06:57:47.499Z,100387.22
2023-04-07T07:00:50.472Z,100393.97
2023-04-07T07:03:53.325Z,100396.16
2023-04-07T07:06:56.205Z,100402.22
2023-04-07T07:09:58.846Z,100408.34
2023-04-07T07:13:02.244Z,100420.19
2023-04-07T07:16:06.115Z,100419.78
2023-04-07T07:19:09.628Z,100420.16
2023-04-07T07:22:12.485Z,100430.59
2023-04-07T07:25:15.144Z,100438.22
2023-04-07T07:28:18.623Z,100443.31
2023-04-07T07:31:21.837Z,100441.28
2023-04-07T07:34:24.489Z,100436.88
2023-04-07T07:37:28.061Z,100434.69
2023-04-07T07:40:30.712Z,100442.47
2023-04-07T07:43:33.492Z,100447.94
2023-04-07T07:46:36.124Z,100448.31
2023-04-07T07:49:38.968Z,100458.16
2023-04-07T07:52:41.862Z,100460.47
2023-04-07T07:55:46.157Z,100465.63
2023-04-07T07:58:48.801Z,100464.06
2023-04-07T08:01:51.593Z,100472.13
2023-04-07T08:04:55.436Z,100477.03
2023-04-07T08:07:58.201Z,100471.81
2023-04-07T08:11:01.191Z,100475.66
2023-04-07T08:14:03.984Z,100473.09
2023-04-07T08:17:07.005Z,100467.75
2023-04-07T08:20:11.861Z,100477.63
2023-04-07T08:23:16.311Z,100481.06
2023-04-07T08:26:18.949Z,100480.97
2023-04-07T08:29:22.459Z,100481.50
2023-04-07T08:32:25.141Z,100482.66
2023-04-07T08:35:28.418Z,100479.97
2023-04-07T08:38:31.514Z,100489.44
2023-04-07T08:41:40.986Z,100491.31
2023-04-07T08:44:45.115Z,100487.00
2023-04-07T08:47:52.798Z,100495.03
2023-04-07T08:50:57.447Z,100502.38
2023-04-07T08:54:09.581Z,100489.97
2023-04-07T08:57:13.425Z,100489.72
2023-04-07T09:00:17.079Z,100482.69
2023-04-07T09:03:21.237Z,100481.00
2023-04-07T09:06:24.781Z,100488.75
2023-04-07T09:09:27.653Z,100488.81
2023-04-07T09:12:31.820Z,100491.28
2023-04-07T09:15:36.768Z,100490.47
2023-04-07T09:18:42.475Z,100486.94
2023-04-07T09:21:50.506Z,100488.75
2023-04-07T09:24:53.080Z,100492.84
2023-04-07T09:28:00.178Z,100483.97
2023-04-07T09:31:02.862Z,100487.81
2023-04-07T09:34:25.039Z,100471.53
2023-04-07T09:37:28.261Z,100490.13
2023-04-07T09:40:32.794Z,100489.09
2023-04-07T09:43:38.188Z,100488.13
2023-04-07T09:46:54.130Z,100496.78
2023-04-07T09:49:58.916Z,100490.44
2023-04-07T09:53:03.698Z,100490.72
2023-04-07T09:56:06.707Z,100496.63
2023-04-07T09:59:10.738Z,100487.16
2023-04-07T10:02:13.508Z,100491.19
2023-04-07T10:05:17.774Z,100486.41
2023-04-07T10:08:21.265Z,100489.13
2023-04-07T10:11:23.938Z,100490.38
2023-04-07T10:14:31.192Z,100494.41
2023-04-07T10:17:36.766Z,100488.59
2023-04-07T10:20:43.813Z,100491.66
2023-04-07T10:23:59.955Z,100497.06
2023-04-07T10:27:09.302Z,100490.88
2023-04-07T10:30:18.742Z,100497.34
2023-04-07T10:33:57.683Z,100492.72
2023-04-07T10:37:16.964Z,100486.94
2023-04-07T10:40:21.592Z,100483.69
2023-04-07T10:43:42.183Z,100487.38
2023-04-07T10:46:48.420Z,100488.88
2023-04-07T10:50:15.723Z,100486.66
2023-04-07T10:53:18.627Z,100496.56
2023-04-07T10:56:21.682Z,100497.34
2023-04-07T10:59:27.831Z,100497.75
2023-04-07T11:02:32.718Z,100506.63
2023-04-07T11:05:38.891Z,100503.06
2023-04-07T11:08:43.317Z,100491.34
2023-04-07T11:11:48.746Z,100504.59
2023-04-07T11:14:53.878Z,100495.09
2023-04-07T11:18:17.286Z,100499.16
2023-04-07T11:21:20.567Z,100508.13
2023-04-07T11:24:52.332Z,100492.94
2023-04-07T11:27:54.976Z,100499.25
2023-04-07T11:31:00.330Z,100497.75
2023-04-07T11:34:05.339Z,100496.91
2023-04-07T11:37:25.485Z,100498.97
2023-04-07T11:40:37.255Z,100489.16
2023-04-07T11:43:42.188Z,100492.25
2023-04-07T11:46:58.602Z,100490.53
2023-04-07T11:50:01.462Z,100492.78
2023-04-07T11:53:04.704Z,100490.75
2023-04-07T11:56:12.596Z,100493.94
2023-04-07T11:59:26.982Z,100504.38
2023-04-07T12:02:32.592Z,100494.97
2023-04-07T12:05:45.449Z,100499.13
2023-04-07T12:08:48.208Z,100495.38
2023-04-07T12:11:50.916Z,100498.44
2023-04-07T12:14:53.614Z,100497.88
2023-04-07T12:17:56.230Z,100504.75
2023-04-07T12:20:59.205Z,100496.38
2023-04-07T12:24:02.472Z,100490.66
2023-04-07T12:27:05.285Z,100496.94
2023-04-07T12:30:08.646Z,100493.59
2023-04-07T12:33:11.688Z,100490.97
2023-04-07T12:36:14.514Z,100487.88
2023-04-07T12:39:17.356Z,100485.31
2023-04-07T12:42:20.211Z,100489.84
2023-04-07T12:45:22.875Z,100491.66
2023-04-07T12:48:27.557Z,100493.66
2023-04-07T12:51:33.485Z,100497.66
2023-04-07T12:54:36.044Z,100496.13
2023-04-07T12:57:38.987Z,100494.19
2023-04-07T13:00:42.613Z,100502.56
2023-04-07T13:03:45.602Z,100502.81
2023-04-07T13:06:48.199Z,100498.06
2023-04-07T13:09:51.871Z,100499.59
2023-04-07T13:12:55.368Z,100500.41
2023-04-07T13:15:58.103Z,100504.50
2023-04-07T13:19:00.774Z,100499.03
2023-04-07T13:22:06.218Z,100501.09
2023-04-07T13:25:09.837Z,100504.44
2023-04-07T13:28:12.537Z,100501.00
2023-04-07T13:31:16.335Z,100498.53
2023-04-07T13:34:20.838Z,100492.22
2023-04-07T13:37:23.552Z,100499.78
2023-04-07T13:40:31.175Z,100508.69
2023-04-07T13:43:33.685Z,100504.50
2023-04-07T13:46:36.913Z,100513.34
2023-04-07T13:49:40.414Z,100511.66
2023-04-07T13:52:43.865Z,100505.19
2023-04-07T13:55:47.508Z,100512.34
2023-04-07T13:58:50.636Z,100511.09
2023-04-07T14:01:53.763Z,100510.28
2023-04-07T14:04:57.388Z,100512.19
2023-04-07T14:07:59.996Z,100512.97
2023-04-07T14:11:03.653Z,100513.44
2023-04-07T14:14:06.703Z,100510.19
2023-04-07T14:17:09.258Z,100514.44
2023-04-07T14:20:12.917Z,100510.19
2023-04-07T14:23:20.758Z,100505.72
2023-04-07T14:26:33.847Z,100505.41
2023-04-07T14:29:36.674Z,100507.50
2023-04-07T14:32:39.933Z,100517.03
2023-04-07T14:35:42.972Z,100512.75
2023-04-07T14:38:45.604Z,100522.91
2023-04-07T14:41:48.965Z,100521.47
2023-04-07T14:44:51.491Z,100528.31
2023-04-07T14:47:54.164Z,100529.66
2023-04-07T14:51:08.168Z,100518.13
2023-04-07T14:54:12.884Z,100524.59
2023-04-07T14:57:17.202Z,100521.75
2023-04-07T15:00:20.403Z,100524.00
2023-04-07T15:03:23.179Z,100530.84
2023-04-07T15:06:30.095Z,100522.44
2023-04-07T15:09:32.796Z,100530.59
2023-04-07T15:12:35.404Z,100529.50
2023-04-07T15:15:38.874Z,100527.31
2023-04-07T15:18:44.535Z,100526.50
2023-04-07T15:21:47.298Z,100528.94
2023-04-07T15:24:49.962Z,100530.78
2023-04-07T15:27:52.742Z,100530.56
2023-04-07T15:30:55.769Z,100531.53
2023-04-07T15:33:58.891Z,100524.00
2023-04-07T15:37:03.575Z,100530.28
2023-04-07T15:40:07.587Z,100531.53
2023-04-07T15:43:11.496Z,100531.94
2023-04-07T15:46:15.467Z,100536.88
2023-04-07T15:49:20.104Z,100532.53
2023-04-07T15:52:24.162Z,100532.50
2023-04-07T15:55:26.907Z,100535.75
2023-04-07T15:58:31.080Z,100530.91
2023-04-07T16:01:34.575Z,100543.63
2023-04-07T16:04:37.428Z,100540.66
2023-04-07T16:07:41.014Z,100548.50
2023-04-07T16:10:43.973Z,100540.66
2023-04-07T16:13:47.139Z,100544.44
2023-04-07T16:16:53.741Z,100547.97
2023-04-07T16:19:56.469Z,100544.19
2023-04-07T16:22:59.094Z,100553.91
2023-04-07T16:26:01.883Z,100551.22
2023-04-07T16:29:04.823Z,100555.25
2023-04-07T16:32:07.669Z,100554.19
2023-04-07T16:35:11.789Z,100562.56
2023-04-07T16:38:14.649Z,100563.88
2023-04-07T16:41:17.212Z,100562.00
2023-04-07T16:44:22.150Z,100562.25
2023-04-07T16:47:28.631Z,100567.66
2023-04-07T16:50:31.390Z,100570.84
2023-04-07T16:53:34.042Z,100573.00
2023-04-07T16:56:37.542Z,100577.84
2023-04-07T16:59:41.083Z,100580.53
2023-04-07T17:02:44.650Z,100580.81
2023-04-07T17:05:48.393Z,100581.06
2023-04-07T17:08:51.045Z,100579.72
2023-04-07T17:11:53.689Z,100584.03
2023-04-07T17:14:56.390Z,100577.84
2023-04-07T17:17:59.846Z,100589.69
2023-04-07T17:21:02.676Z,100591.59
2023-04-07T17:24:06.792Z,100601.81
2023-04-07T17:27:09.491Z,100605.88
2023-04-07T17:30:13.359Z,100604.25
2023-04-07T17:33:16.536Z,100602.31
2023-04-07T17:36:19.507Z,100607.50
2023-04-07T17:39:22.343Z,100605.34
2023-04-07T17:42:24.935Z,100614.44
2023-04-07T17:45:27.851Z,100616.06
2023-04-07T17:48:33.500Z,100629.78
2023-04-07T17:51:36.464Z,100629.50
2023-04-07T17:54:39.288Z,100646.75
2023-04-07T17:57:42.121Z,100648.38
2023-04-07T18:00:45.093Z,100654.31
2023-04-07T18:03:48.574Z,100653.75
2023-04-07T18:06:51.586Z,100647.81
2023-04-07T18:09:54.494Z,100650.00
2023-04-07T18:12:58.584Z,100655.88
2023-04-07T18:16:01.228Z,100667.47
2023-04-07T18:19:03.891Z,100672.50
2023-04-07T18:22:06.653Z,100678.72
2023-04-07T18:25:10.096Z,100685.56
2023-04-07T18:28:12.736Z,100687.16
2023-04-07T18:31:15.901Z,100690.38
2023-04-07T18:34:18.444Z,100691.28
2023-04-07T18:37:22.270Z,100696.16
2023-04-07T18:40:25.088Z,100688.34
2023-04-07T18:43:28.037Z,100695.06
2023-04-07T18:46:31.157Z,100696.13
2023-04-07T18:49:34.889Z,100699.09
2023-04-07T18:52:37.781Z,100704.94
2023-04-07T18:55:40.495Z,100706.69
2023-04-07T18:58:45.970Z,100704.75
2023-04-07T19:01:48.724Z,100701.97
2023-04-07T19:04:51.456Z,100691.41
2023-04-07T19:07:54.164Z,100697.31
2023-04-07T19:10:56.991Z,100705.41
2023-04-07T19:14:00.004Z,100712.03
2023-04-07T19:17:03.587Z,100720.41
2023-04-07T19:20:07.373Z,100713.38
2023-04-07T19:23:10.007Z,100717.06
2023-04-07T19:26:14.198Z,100716.28
2023-04-07T19:29:17.461Z,100715.81
2023-04-07T19:32:20.578Z,100726.72
2023-04-07T19:35:23.312Z,100719.84
2023-04-07T19:38:26.097Z,100724.84
2023-04-07T19:41:29.450Z,100725.22
2023-04-07T19:44:32.010Z,100737.19
2023-04-07T19:47:35.972Z,100728.47
2023-04-07T19:50:43.589Z,100728.69
2023-04-07T19:53:46.998Z,100738.00
2023-04-07T19:56:50.793Z,100735.09
2023-04-07T19:59:53.523Z,100736.06
2023-04-07T20:02:56.958Z,100731.19
2023-04-07T20:05:59.778Z,100726.19
2023-04-07T20:09:02.670Z,100730.03
2023-04-07T20:12:06.235Z,100736.88
2023-04-07T20:15:09.357Z,100734.44
2023-04-07T20:18:12.845Z,100737.00
2023-04-07T20:21:16.421Z,100740.59
2023-04-07T20:24:19.634Z,100742.34
2023-04-07T20:27:22.114Z,100739.59
2023-04-07T20:30:27.048Z,100738.06
2023-04-07T20:33:30.434Z,100747.81
2023-04-07T20:36:33.659Z,100744.34
2023-04-07T20:39:37.719Z,100746.53
2023-04-07T20:42:41.302Z,100743.31
2023-04-07T20:45:46.163Z,100743.31
2023-04-07T20:48:50.071Z,100741.81
2023-04-07T20:51:53.654Z,100744.13
2023-04-07T20:54:56.769Z,100737.56
2023-04-07T20:58:00.520Z,100745.88
2023-04-07T21:01:03.165Z,100750.06
2023-04-07T21:04:06.526Z,100749.38
2023-04-07T21:07:10.524Z,100755.13
2023-04-07T21:10:14.625Z,100753.13
2023-04-07T21:13:18.901Z,100756.88
2023-04-07T21:16:21.848Z,100763.00
2023-04-07T21:19:25.331Z,100758.75
2023-04-07T21:22:29.662Z,100757.28
2023-04-07T21:25:32.345Z,100756.88
2023-04-07T21:28:35.934Z,100753.19
2023-04-07T21:31:39.403Z,100751.19
2023-04-07T21:34:42.204Z,100764.81
2023-04-07T21:37:46.211Z,100760.56
2023-04-07T21:40:49.262Z,100757.50
2023-04-07T21:43:52.239Z,100756.75
2023-04-07T21:46:54.939Z,100765.16
2023-04-07T21:49:58.000Z,100768.41
2023-04-07T21:53:00.683Z,100767.19
2023-04-07T21:56:04.472Z,100763.13
2023-04-07T21:59:07.330Z,100767.19
2023-04-07T22:02:12.905Z,100766.13
2023-04-07T22:05:17.583Z,100773.22
2023-04-07T22:08:20.558Z,100769.44
2023-04-07T22:11:23.664Z,100776.38
2023-04-07T22:14:26.923Z,100775.91
2023-04-07T22:17:29.628Z,100775.75
2023-04-07T22:20:34.513Z,100770.59
2023-04-07T22:23:37.823Z,100771.94
2023-04-07T22:26:40.515Z,100774.19
2023-04-07T22:29:43.841Z,100774.19
2023-04-07T22:32:48.030Z,100780.38
2023-04-07T22:35:50.887Z,100775.44
2023-04-07T22:38:54.383Z,100776.53
2023-04-07T22:41:57.412Z,100788.53
2023-04-07T22:45:01.038Z,100790.16
2023-04-07T22:48:04.497Z,100784.91
2023-04-07T22:51:07.638Z,100786.56
2023-04-07T22:54:10.151Z,100786.63
2023-04-07T22:57:13.337Z,100792.47
2023-04-07T23:00:18.024Z,100787.22
2023-04-07T23:03:21.126Z,100790.72
2023-04-07T23:06:23.928Z,100796.38
2023-04-07T23:09:27.662Z,100793.56
2023-04-07T23:12:30.268Z,100796.31
2023-04-07T23:15:35.864Z,100796.31
2023-04-07T23:18:38.524Z,100798.13
2023-04-07T23:21:41.575Z,100794.38
2023-04-07T23:24:44.070Z,100791.75
2023-04-07T23:27:47.360Z,100798.94
2023-04-07T23:30:54.274Z,100791.94
2023-04-07T23:33:59.147Z,100790.88
2023-04-07T23:37:02.273Z,100795.31
2023-04-07T23:40:06.633Z,100798.00
2023-04-07T23:43:10.909Z,100795.88
2023-04-07T23:46:14.477Z,100797.09
2023-04-07T23:49:17.224Z,100800.94
2023-04-07T23:52:21.953Z,100807.19
2023-04-07T23:55:24.700Z,100803.38
2023-04-07T23:58:28.098Z,100807.97
